sensor_id;sensor_type;location;lat;lon;timestamp;P1;durP1;ratioP1;P2;durP2;ratioP2
59960;SDS011;55902;-37.980;-63.602;2023-07-31T00:01:29;4.15;;;2.42;;
59960;SDS011;55902;-37.980;-63.602;2023-07-31T00:03:56;5.22;;;1.77;;
59960;SDS011;55902;-37.980;-63.602;2023-07-31T00:06:23;2.83;;;1.70;;
59960;SDS011;55902;-37.980;-63.602;2023-07-31T00:08:51;3.08;;;1.60;;
59960;SDS011;55902;-37.980;-63.602;2023-07-31T00:11:18;2.40;;;1.77;;
59960;SDS011;55902;-37.980;-63.602;2023-07-31T00:13:47;2.95;;;1.70;;
59960;SDS011;55902;-37.980;-63.602;2023-07-31T00:16:15;1.80;;;1.70;;
59960;SDS011;55902;-37.980;-63.602;2023-07-31T00:18:42;4.40;;;1.92;;
59960;SDS011;55902;-37.980;-63.602;2023-07-31T00:21:09;4.55;;;2.20;;
59960;SDS011;55902;-37.980;-63.602;2023-07-31T00:23:36;2.55;;;1.98;;
59960;SDS011;55902;-37.980;-63.602;2023-07-31T00:26:03;2.40;;;1.88;;
59960;SDS011;55902;-37.980;-63.602;2023-07-31T00:28:31;2.55;;;1.70;;
59960;SDS011;55902;-37.980;-63.602;2023-07-31T00:30:58;4.50;;;1.70;;
59960;SDS011;55902;-37.980;-63.602;2023-07-31T00:33:25;2.50;;;1.50;;
59960;SDS011;55902;-37.980;-63.602;2023-07-31T00:35:52;1.52;;;1.42;;
59960;SDS011;55902;-37.980;-63.602;2023-07-31T00:38:19;1.58;;;1.40;;
59960;SDS011;55902;-37.980;-63.602;2023-07-31T00:40:46;1.70;;;1.60;;
59960;SDS011;55902;-37.980;-63.602;2023-07-31T00:43:13;1.67;;;1.50;;
59960;SDS011;55902;-37.980;-63.602;2023-07-31T00:45:40;1.52;;;1.42;;
59960;SDS011;55902;-37.980;-63.602;2023-07-31T00:48:07;2.55;;;1.70;;
59960;SDS011;55902;-37.980;-63.602;2023-07-31T00:50:34;2.60;;;1.50;;
59960;SDS011;55902;-37.980;-63.602;2023-07-31T00:53:02;2.15;;;1.50;;
59960;SDS011;55902;-37.980;-63.602;2023-07-31T00:55:29;3.60;;;1.60;;
59960;SDS011;55902;-37.980;-63.602;2023-07-31T00:57:59;2.58;;;2.15;;
59960;SDS011;55902;-37.980;-63.602;2023-07-31T01:00:26;2.05;;;1.65;;
59960;SDS011;55902;-37.980;-63.602;2023-07-31T01:02:54;1.70;;;1.60;;
59960;SDS011;55902;-37.980;-63.602;2023-07-31T01:05:24;4.05;;;1.70;;
59960;SDS011;55902;-37.980;-63.602;2023-07-31T01:08:11;2.17;;;1.50;;
59960;SDS011;55902;-37.980;-63.602;2023-07-31T01:10:56;3.60;;;1.60;;
59960;SDS011;55902;-37.980;-63.602;2023-07-31T01:13:28;2.72;;;1.70;;
59960;SDS011;55902;-37.980;-63.602;2023-07-31T01:15:55;1.77;;;1.50;;
59960;SDS011;55902;-37.980;-63.602;2023-07-31T01:18:22;4.20;;;1.52;;
59960;SDS011;55902;-37.980;-63.602;2023-07-31T01:20:53;2.00;;;1.50;;
59960;SDS011;55902;-37.980;-63.602;2023-07-31T01:26:37;1.75;;;1.50;;
59960;SDS011;55902;-37.980;-63.602;2023-07-31T01:29:14;1.65;;;1.50;;
59960;SDS011;55902;-37.980;-63.602;2023-07-31T01:32:07;1.60;;;1.50;;
59960;SDS011;55902;-37.980;-63.602;2023-07-31T01:34:35;2.78;;;1.90;;
59960;SDS011;55902;-37.980;-63.602;2023-07-31T01:37:02;4.47;;;1.83;;
59960;SDS011;55902;-37.980;-63.602;2023-07-31T01:39:30;3.10;;;2.08;;
59960;SDS011;55902;-37.980;-63.602;2023-07-31T01:41:57;2.22;;;1.70;;
59960;SDS011;55902;-37.980;-63.602;2023-07-31T01:44:24;4.22;;;1.70;;
59960;SDS011;55902;-37.980;-63.602;2023-07-31T01:46:51;2.85;;;1.70;;
59960;SDS011;55902;-37.980;-63.602;2023-07-31T01:49:18;3.38;;;1.70;;
59960;SDS011;55902;-37.980;-63.602;2023-07-31T01:51:45;1.73;;;1.50;;
59960;SDS011;55902;-37.980;-63.602;2023-07-31T01:54:12;3.15;;;1.65;;
59960;SDS011;55902;-37.980;-63.602;2023-07-31T01:56:39;3.25;;;1.70;;
59960;SDS011;55902;-37.980;-63.602;2023-07-31T02:02:27;2.95;;;1.67;;
59960;SDS011;55902;-37.980;-63.602;2023-07-31T02:04:54;2.35;;;1.65;;
59960;SDS011;55902;-37.980;-63.602;2023-07-31T02:07:21;2.38;;;1.65;;
59960;SDS011;55902;-37.980;-63.602;2023-07-31T02:09:48;1.70;;;1.60;;
59960;SDS011;55902;-37.980;-63.602;2023-07-31T02:12:15;1.58;;;1.48;;
59960;SDS011;55902;-37.980;-63.602;2023-07-31T02:14:42;2.60;;;1.67;;
59960;SDS011;55902;-37.980;-63.602;2023-07-31T02:17:09;2.47;;;1.83;;
59960;SDS011;55902;-37.980;-63.602;2023-07-31T02:19:36;1.60;;;1.50;;
59960;SDS011;55902;-37.980;-63.602;2023-07-31T02:22:03;1.67;;;1.58;;
59960;SDS011;55902;-37.980;-63.602;2023-07-31T02:24:30;3.05;;;1.70;;
59960;SDS011;55902;-37.980;-63.602;2023-07-31T02:26:57;1.60;;;1.50;;
59960;SDS011;55902;-37.980;-63.602;2023-07-31T02:29:24;1.60;;;1.50;;
59960;SDS011;55902;-37.980;-63.602;2023-07-31T02:31:51;2.47;;;1.50;;
59960;SDS011;55902;-37.980;-63.602;2023-07-31T02:34:18;2.15;;;1.58;;
59960;SDS011;55902;-37.980;-63.602;2023-07-31T02:36:45;1.70;;;1.60;;
59960;SDS011;55902;-37.980;-63.602;2023-07-31T02:39:12;2.97;;;1.90;;
59960;SDS011;55902;-37.980;-63.602;2023-07-31T02:41:42;3.85;;;1.80;;
59960;SDS011;55902;-37.980;-63.602;2023-07-31T02:44:09;3.25;;;1.90;;
59960;SDS011;55902;-37.980;-63.602;2023-07-31T02:46:39;2.10;;;1.90;;
59960;SDS011;55902;-37.980;-63.602;2023-07-31T02:49:07;4.47;;;2.10;;
59960;SDS011;55902;-37.980;-63.602;2023-07-31T02:51:34;4.35;;;2.17;;
59960;SDS011;55902;-37.980;-63.602;2023-07-31T02:54:01;3.13;;;2.15;;
59960;SDS011;55902;-37.980;-63.602;2023-07-31T02:56:28;4.15;;;2.42;;
59960;SDS011;55902;-37.980;-63.602;2023-07-31T02:58:55;2.83;;;2.10;;
59960;SDS011;55902;-37.980;-63.602;2023-07-31T03:01:22;3.38;;;2.35;;
59960;SDS011;55902;-37.980;-63.602;2023-07-31T03:03:49;3.17;;;2.40;;
59960;SDS011;55902;-37.980;-63.602;2023-07-31T03:06:16;3.80;;;2.63;;
59960;SDS011;55902;-37.980;-63.602;2023-07-31T03:08:43;3.95;;;2.70;;
59960;SDS011;55902;-37.980;-63.602;2023-07-31T03:11:10;3.55;;;2.90;;
59960;SDS011;55902;-37.980;-63.602;2023-07-31T03:13:37;8.85;;;5.82;;
59960;SDS011;55902;-37.980;-63.602;2023-07-31T03:16:04;8.90;;;6.25;;
59960;SDS011;55902;-37.980;-63.602;2023-07-31T03:18:31;10.13;;;7.03;;
59960;SDS011;55902;-37.980;-63.602;2023-07-31T03:20:58;10.80;;;6.38;;
59960;SDS011;55902;-37.980;-63.602;2023-07-31T03:23:25;8.23;;;6.00;;
59960;SDS011;55902;-37.980;-63.602;2023-07-31T03:25:55;5.68;;;3.65;;
59960;SDS011;55902;-37.980;-63.602;2023-07-31T03:28:28;7.35;;;2.75;;
59960;SDS011;55902;-37.980;-63.602;2023-07-31T03:30:55;6.03;;;2.60;;
59960;SDS011;55902;-37.980;-63.602;2023-07-31T03:33:23;3.20;;;2.30;;
59960;SDS011;55902;-37.980;-63.602;2023-07-31T03:35:50;3.67;;;2.20;;
59960;SDS011;55902;-37.980;-63.602;2023-07-31T03:38:17;3.88;;;2.30;;
59960;SDS011;55902;-37.980;-63.602;2023-07-31T03:40:44;3.42;;;2.10;;
59960;SDS011;55902;-37.980;-63.602;2023-07-31T03:43:12;4.65;;;2.35;;
59960;SDS011;55902;-37.980;-63.602;2023-07-31T03:45:39;7.03;;;2.25;;
59960;SDS011;55902;-37.980;-63.602;2023-07-31T03:48:06;3.08;;;2.20;;
59960;SDS011;55902;-37.980;-63.602;2023-07-31T03:50:34;3.22;;;2.30;;
59960;SDS011;55902;-37.980;-63.602;2023-07-31T03:53:01;6.65;;;2.97;;
59960;SDS011;55902;-37.980;-63.602;2023-07-31T03:55:28;4.20;;;2.47;;
59960;SDS011;55902;-37.980;-63.602;2023-07-31T03:57:55;3.72;;;2.45;;
59960;SDS011;55902;-37.980;-63.602;2023-07-31T04:00:22;6.70;;;4.00;;
59960;SDS011;55902;-37.980;-63.602;2023-07-31T04:02:49;9.45;;;6.95;;
59960;SDS011;55902;-37.980;-63.602;2023-07-31T04:05:16;11.02;;;6.70;;
59960;SDS011;55902;-37.980;-63.602;2023-07-31T04:07:43;7.00;;;4.60;;
59960;SDS011;55902;-37.980;-63.602;2023-07-31T04:10:10;5.45;;;4.22;;
59960;SDS011;55902;-37.980;-63.602;2023-07-31T04:12:40;4.47;;;2.80;;
59960;SDS011;55902;-37.980;-63.602;2023-07-31T04:15:07;3.80;;;2.25;;
59960;SDS011;55902;-37.980;-63.602;2023-07-31T04:17:34;2.55;;;1.90;;
59960;SDS011;55902;-37.980;-63.602;2023-07-31T04:20:01;2.63;;;1.80;;
59960;SDS011;55902;-37.980;-63.602;2023-07-31T04:22:28;2.42;;;2.10;;
59960;SDS011;55902;-37.980;-63.602;2023-07-31T04:24:55;3.30;;;2.40;;
59960;SDS011;55902;-37.980;-63.602;2023-07-31T04:27:22;3.47;;;2.10;;
59960;SDS011;55902;-37.980;-63.602;2023-07-31T04:29:50;2.90;;;2.10;;
59960;SDS011;55902;-37.980;-63.602;2023-07-31T04:32:17;2.67;;;2.10;;
59960;SDS011;55902;-37.980;-63.602;2023-07-31T04:56:10;3.88;;;2.70;;
59960;SDS011;55902;-37.980;-63.602;2023-07-31T04:58:37;3.63;;;2.72;;
59960;SDS011;55902;-37.980;-63.602;2023-07-31T05:01:05;3.10;;;2.50;;
59960;SDS011;55902;-37.980;-63.602;2023-07-31T05:03:34;4.70;;;2.60;;
59960;SDS011;55902;-37.980;-63.602;2023-07-31T05:06:01;2.58;;;2.20;;
59960;SDS011;55902;-37.980;-63.602;2023-07-31T05:08:28;2.42;;;2.00;;
59960;SDS011;55902;-37.980;-63.602;2023-07-31T05:10:55;3.47;;;2.20;;
59960;SDS011;55902;-37.980;-63.602;2023-07-31T05:13:22;3.67;;;2.28;;
59960;SDS011;55902;-37.980;-63.602;2023-07-31T05:15:49;2.97;;;2.03;;
59960;SDS011;55902;-37.980;-63.602;2023-07-31T05:18:16;4.00;;;2.08;;
59960;SDS011;55902;-37.980;-63.602;2023-07-31T05:20:43;2.80;;;2.00;;
59960;SDS011;55902;-37.980;-63.602;2023-07-31T05:23:10;3.80;;;2.47;;
59960;SDS011;55902;-37.980;-63.602;2023-07-31T05:35:43;2.30;;;2.10;;
59960;SDS011;55902;-37.980;-63.602;2023-07-31T05:38:10;2.20;;;2.00;;
59960;SDS011;55902;-37.980;-63.602;2023-07-31T05:40:37;2.38;;;2.00;;
59960;SDS011;55902;-37.980;-63.602;2023-07-31T05:43:04;2.55;;;2.10;;
59960;SDS011;55902;-37.980;-63.602;2023-07-31T05:45:33;2.10;;;1.90;;
59960;SDS011;55902;-37.980;-63.602;2023-07-31T05:48:00;2.28;;;2.08;;
59960;SDS011;55902;-37.980;-63.602;2023-07-31T05:50:27;2.58;;;2.00;;
59960;SDS011;55902;-37.980;-63.602;2023-07-31T05:52:56;2.42;;;1.83;;
59960;SDS011;55902;-37.980;-63.602;2023-07-31T05:55:23;2.05;;;1.85;;
59960;SDS011;55902;-37.980;-63.602;2023-07-31T05:57:54;1.95;;;1.80;;
59960;SDS011;55902;-37.980;-63.602;2023-07-31T06:00:21;2.10;;;1.90;;
59960;SDS011;55902;-37.980;-63.602;2023-07-31T06:02:48;3.75;;;1.90;;
59960;SDS011;55902;-37.980;-63.602;2023-07-31T06:05:15;2.72;;;1.90;;
59960;SDS011;55902;-37.980;-63.602;2023-07-31T06:07:42;2.03;;;1.83;;
59960;SDS011;55902;-37.980;-63.602;2023-07-31T06:10:09;1.80;;;1.70;;
59960;SDS011;55902;-37.980;-63.602;2023-07-31T06:12:36;2.85;;;1.75;;
59960;SDS011;55902;-37.980;-63.602;2023-07-31T06:15:04;1.92;;;1.83;;
59960;SDS011;55902;-37.980;-63.602;2023-07-31T06:17:31;2.40;;;1.70;;
59960;SDS011;55902;-37.980;-63.602;2023-07-31T06:19:58;1.90;;;1.80;;
59960;SDS011;55902;-37.980;-63.602;2023-07-31T06:22:25;1.80;;;1.70;;
59960;SDS011;55902;-37.980;-63.602;2023-07-31T06:24:52;2.97;;;2.17;;
59960;SDS011;55902;-37.980;-63.602;2023-07-31T06:27:19;2.30;;;2.10;;
59960;SDS011;55902;-37.980;-63.602;2023-07-31T06:29:46;2.75;;;1.95;;
59960;SDS011;55902;-37.980;-63.602;2023-07-31T06:32:13;2.03;;;1.80;;
59960;SDS011;55902;-37.980;-63.602;2023-07-31T06:34:43;2.20;;;2.00;;
59960;SDS011;55902;-37.980;-63.602;2023-07-31T06:37:10;2.20;;;2.00;;
59960;SDS011;55902;-37.980;-63.602;2023-07-31T06:39:37;2.35;;;1.80;;
59960;SDS011;55902;-37.980;-63.602;2023-07-31T06:42:04;2.95;;;1.90;;
59960;SDS011;55902;-37.980;-63.602;2023-07-31T06:44:32;2.08;;;1.88;;
59960;SDS011;55902;-37.980;-63.602;2023-07-31T06:46:59;1.90;;;1.80;;
59960;SDS011;55902;-37.980;-63.602;2023-07-31T06:49:26;2.03;;;1.85;;
59960;SDS011;55902;-37.980;-63.602;2023-07-31T06:51:53;2.38;;;1.77;;
59960;SDS011;55902;-37.980;-63.602;2023-07-31T06:54:20;1.90;;;1.80;;
59960;SDS011;55902;-37.980;-63.602;2023-07-31T06:56:47;1.88;;;1.77;;
59960;SDS011;55902;-37.980;-63.602;2023-07-31T06:59:14;1.90;;;1.80;;
59960;SDS011;55902;-37.980;-63.602;2023-07-31T07:01:41;1.90;;;1.80;;
59960;SDS011;55902;-37.980;-63.602;2023-07-31T07:04:08;1.90;;;1.80;;
59960;SDS011;55902;-37.980;-63.602;2023-07-31T07:06:35;2.00;;;1.90;;
59960;SDS011;55902;-37.980;-63.602;2023-07-31T07:09:02;2.58;;;1.88;;
59960;SDS011;55902;-37.980;-63.602;2023-07-31T07:11:29;3.53;;;2.00;;
59960;SDS011;55902;-37.980;-63.602;2023-07-31T07:13:57;2.55;;;1.85;;
59960;SDS011;55902;-37.980;-63.602;2023-07-31T07:16:24;2.40;;;2.08;;
59960;SDS011;55902;-37.980;-63.602;2023-07-31T07:18:51;4.38;;;2.08;;
59960;SDS011;55902;-37.980;-63.602;2023-07-31T07:21:18;3.10;;;2.15;;
59960;SDS011;55902;-37.980;-63.602;2023-07-31T07:23:45;2.92;;;2.10;;
59960;SDS011;55902;-37.980;-63.602;2023-07-31T07:26:12;2.47;;;1.98;;
59960;SDS011;55902;-37.980;-63.602;2023-07-31T07:28:39;2.60;;;2.38;;
59960;SDS011;55902;-37.980;-63.602;2023-07-31T07:31:06;2.58;;;2.00;;
59960;SDS011;55902;-37.980;-63.602;2023-07-31T07:33:33;2.15;;;1.95;;
59960;SDS011;55902;-37.980;-63.602;2023-07-31T07:36:00;2.10;;;2.00;;
59960;SDS011;55902;-37.980;-63.602;2023-07-31T07:38:28;2.08;;;1.98;;
59960;SDS011;55902;-37.980;-63.602;2023-07-31T07:40:55;2.80;;;2.10;;
59960;SDS011;55902;-37.980;-63.602;2023-07-31T07:43:22;3.17;;;1.65;;
59960;SDS011;55902;-37.980;-63.602;2023-07-31T07:45:49;2.08;;;1.88;;
59960;SDS011;55902;-37.980;-63.602;2023-07-31T07:58:49;2.92;;;1.90;;
59960;SDS011;55902;-37.980;-63.602;2023-07-31T08:01:17;2.17;;;1.98;;
59960;SDS011;55902;-37.980;-63.602;2023-07-31T08:03:44;2.65;;;2.00;;
59960;SDS011;55902;-37.980;-63.602;2023-07-31T08:06:11;3.55;;;2.10;;
59960;SDS011;55902;-37.980;-63.602;2023-07-31T08:08:38;2.10;;;1.90;;
59960;SDS011;55902;-37.980;-63.602;2023-07-31T08:11:05;2.63;;;2.00;;
59960;SDS011;55902;-37.980;-63.602;2023-07-31T08:13:32;3.05;;;1.90;;
59960;SDS011;55902;-37.980;-63.602;2023-07-31T08:16:03;2.40;;;2.20;;
59960;SDS011;55902;-37.980;-63.602;2023-07-31T08:18:33;2.00;;;1.90;;
59960;SDS011;55902;-37.980;-63.602;2023-07-31T08:21:01;2.50;;;2.00;;
59960;SDS011;55902;-37.980;-63.602;2023-07-31T08:23:29;1.92;;;1.77;;
59960;SDS011;55902;-37.980;-63.602;2023-07-31T08:25:56;2.65;;;1.80;;
59960;SDS011;55902;-37.980;-63.602;2023-07-31T08:28:23;2.25;;;2.00;;
59960;SDS011;55902;-37.980;-63.602;2023-07-31T08:30:50;2.10;;;2.00;;
59960;SDS011;55902;-37.980;-63.602;2023-07-31T08:33:17;2.35;;;1.90;;
59960;SDS011;55902;-37.980;-63.602;2023-07-31T08:35:44;2.00;;;1.90;;
59960;SDS011;55902;-37.980;-63.602;2023-07-31T08:38:11;2.72;;;2.03;;
59960;SDS011;55902;-37.980;-63.602;2023-07-31T08:40:38;4.32;;;2.22;;
59960;SDS011;55902;-37.980;-63.602;2023-07-31T08:43:05;2.47;;;2.00;;
59960;SDS011;55902;-37.980;-63.602;2023-07-31T08:45:33;2.20;;;2.00;;
59960;SDS011;55902;-37.980;-63.602;2023-07-31T08:48:01;3.47;;;2.00;;
59960;SDS011;55902;-37.980;-63.602;2023-07-31T08:50:28;2.60;;;2.10;;
59960;SDS011;55902;-37.980;-63.602;2023-07-31T08:52:55;2.03;;;1.90;;
59960;SDS011;55902;-37.980;-63.602;2023-07-31T08:55:22;2.00;;;1.90;;
59960;SDS011;55902;-37.980;-63.602;2023-07-31T08:57:53;3.55;;;2.10;;
59960;SDS011;55902;-37.980;-63.602;2023-07-31T09:00:21;2.20;;;2.00;;
59960;SDS011;55902;-37.980;-63.602;2023-07-31T09:03:02;2.88;;;1.98;;
59960;SDS011;55902;-37.980;-63.602;2023-07-31T09:05:35;2.25;;;2.05;;
59960;SDS011;55902;-37.980;-63.602;2023-07-31T09:08:05;2.20;;;2.00;;
59960;SDS011;55902;-37.980;-63.602;2023-07-31T09:10:33;2.10;;;2.00;;
59960;SDS011;55902;-37.980;-63.602;2023-07-31T09:13:00;2.38;;;2.17;;
59960;SDS011;55902;-37.980;-63.602;2023-07-31T09:15:30;2.67;;;2.10;;
59960;SDS011;55902;-37.980;-63.602;2023-07-31T09:18:00;2.95;;;2.10;;
59960;SDS011;55902;-37.980;-63.602;2023-07-31T09:20:28;2.33;;;2.13;;
59960;SDS011;55902;-37.980;-63.602;2023-07-31T09:22:55;2.00;;;1.90;;
59960;SDS011;55902;-37.980;-63.602;2023-07-31T09:25:23;3.25;;;2.10;;
59960;SDS011;55902;-37.980;-63.602;2023-07-31T09:30:29;2.40;;;2.20;;
59960;SDS011;55902;-37.980;-63.602;2023-07-31T09:33:00;2.17;;;2.05;;
59960;SDS011;55902;-37.980;-63.602;2023-07-31T09:35:34;2.80;;;1.90;;
59960;SDS011;55902;-37.980;-63.602;2023-07-31T09:38:04;2.30;;;2.10;;
59960;SDS011;55902;-37.980;-63.602;2023-07-31T09:40:39;2.50;;;1.90;;
59960;SDS011;55902;-37.980;-63.602;2023-07-31T09:43:08;2.58;;;2.00;;
59960;SDS011;55902;-37.980;-63.602;2023-07-31T09:45:37;3.22;;;2.10;;
59960;SDS011;55902;-37.980;-63.602;2023-07-31T09:48:10;2.10;;;2.00;;
59960;SDS011;55902;-37.980;-63.602;2023-07-31T09:50:38;2.15;;;2.00;;
59960;SDS011;55902;-37.980;-63.602;2023-07-31T09:53:07;2.20;;;2.00;;
59960;SDS011;55902;-37.980;-63.602;2023-07-31T09:55:36;2.67;;;2.20;;
59960;SDS011;55902;-37.980;-63.602;2023-07-31T09:58:04;4.78;;;2.30;;
59960;SDS011;55902;-37.980;-63.602;2023-07-31T10:00:33;3.15;;;2.00;;
59960;SDS011;55902;-37.980;-63.602;2023-07-31T10:03:04;2.22;;;2.03;;
59960;SDS011;55902;-37.980;-63.602;2023-07-31T10:05:42;4.43;;;2.10;;
59960;SDS011;55902;-37.980;-63.602;2023-07-31T10:08:17;5.20;;;2.10;;
59960;SDS011;55902;-37.980;-63.602;2023-07-31T10:10:47;4.38;;;2.10;;
59960;SDS011;55902;-37.980;-63.602;2023-07-31T10:13:14;4.82;;;2.00;;
59960;SDS011;55902;-37.980;-63.602;2023-07-31T10:15:42;2.60;;;1.90;;
59960;SDS011;55902;-37.980;-63.602;2023-07-31T10:18:10;2.53;;;1.83;;
59960;SDS011;55902;-37.980;-63.602;2023-07-31T10:20:42;2.17;;;1.92;;
59960;SDS011;55902;-37.980;-63.602;2023-07-31T10:23:09;3.05;;;1.90;;
59960;SDS011;55902;-37.980;-63.602;2023-07-31T10:25:38;2.72;;;2.00;;
59960;SDS011;55902;-37.980;-63.602;2023-07-31T10:28:08;2.40;;;2.00;;
59960;SDS011;55902;-37.980;-63.602;2023-07-31T10:30:36;2.33;;;2.13;;
59960;SDS011;55902;-37.980;-63.602;2023-07-31T10:33:05;2.00;;;1.90;;
59960;SDS011;55902;-37.980;-63.602;2023-07-31T10:35:38;2.38;;;1.90;;
59960;SDS011;55902;-37.980;-63.602;2023-07-31T10:38:10;2.40;;;2.20;;
59960;SDS011;55902;-37.980;-63.602;2023-07-31T10:40:44;3.35;;;2.97;;
59960;SDS011;55902;-37.980;-63.602;2023-07-31T10:46:14;3.60;;;2.70;;
59960;SDS011;55902;-37.980;-63.602;2023-07-31T10:48:41;5.10;;;2.90;;
59960;SDS011;55902;-37.980;-63.602;2023-07-31T10:51:09;3.17;;;2.78;;
59960;SDS011;55902;-37.980;-63.602;2023-07-31T10:53:38;3.03;;;2.38;;
59960;SDS011;55902;-37.980;-63.602;2023-07-31T10:56:09;3.13;;;2.28;;
59960;SDS011;55902;-37.980;-63.602;2023-07-31T10:58:48;3.40;;;2.40;;
59960;SDS011;55902;-37.980;-63.602;2023-07-31T11:01:49;2.63;;;2.10;;
59960;SDS011;55902;-37.980;-63.602;2023-07-31T11:04:24;2.33;;;2.08;;
59960;SDS011;55902;-37.980;-63.602;2023-07-31T11:06:58;2.42;;;2.10;;
59960;SDS011;55902;-37.980;-63.602;2023-07-31T11:09:31;2.30;;;2.10;;
59960;SDS011;55902;-37.980;-63.602;2023-07-31T11:11:59;2.95;;;2.00;;
59960;SDS011;55902;-37.980;-63.602;2023-07-31T11:14:26;2.17;;;2.00;;
59960;SDS011;55902;-37.980;-63.602;2023-07-31T11:16:53;3.35;;;2.00;;
59960;SDS011;55902;-37.980;-63.602;2023-07-31T11:19:26;2.03;;;1.90;;
59960;SDS011;55902;-37.980;-63.602;2023-07-31T11:21:53;2.20;;;2.00;;
59960;SDS011;55902;-37.980;-63.602;2023-07-31T11:24:21;2.85;;;2.20;;
59960;SDS011;55902;-37.980;-63.602;2023-07-31T11:26:51;3.78;;;2.55;;
59960;SDS011;55902;-37.980;-63.602;2023-07-31T11:29:19;5.63;;;2.65;;
59960;SDS011;55902;-37.980;-63.602;2023-07-31T11:31:46;5.43;;;2.70;;
59960;SDS011;55902;-37.980;-63.602;2023-07-31T11:34:14;4.85;;;3.10;;
59960;SDS011;55902;-37.980;-63.602;2023-07-31T11:36:52;6.32;;;3.20;;
59960;SDS011;55902;-37.980;-63.602;2023-07-31T11:39:22;6.53;;;3.30;;
59960;SDS011;55902;-37.980;-63.602;2023-07-31T11:41:49;4.35;;;2.92;;
59960;SDS011;55902;-37.980;-63.602;2023-07-31T11:44:17;2.58;;;2.20;;
59960;SDS011;55902;-37.980;-63.602;2023-07-31T11:46:44;2.88;;;2.10;;
59960;SDS011;55902;-37.980;-63.602;2023-07-31T11:49:11;2.45;;;2.10;;
59960;SDS011;55902;-37.980;-63.602;2023-07-31T11:51:38;3.75;;;2.10;;
59960;SDS011;55902;-37.980;-63.602;2023-07-31T11:54:05;3.78;;;2.20;;
59960;SDS011;55902;-37.980;-63.602;2023-07-31T11:56:33;2.70;;;2.20;;
59960;SDS011;55902;-37.980;-63.602;2023-07-31T11:59:00;3.92;;;2.20;;
59960;SDS011;55902;-37.980;-63.602;2023-07-31T12:01:29;2.53;;;2.20;;
59960;SDS011;55902;-37.980;-63.602;2023-07-31T12:03:57;3.03;;;2.10;;
59960;SDS011;55902;-37.980;-63.602;2023-07-31T12:06:36;2.00;;;1.90;;
59960;SDS011;55902;-37.980;-63.602;2023-07-31T12:09:04;3.45;;;2.20;;
59960;SDS011;55902;-37.980;-63.602;2023-07-31T12:11:31;2.97;;;2.00;;
59960;SDS011;55902;-37.980;-63.602;2023-07-31T12:17:08;4.45;;;2.10;;
59960;SDS011;55902;-37.980;-63.602;2023-07-31T12:19:35;2.30;;;2.00;;
59960;SDS011;55902;-37.980;-63.602;2023-07-31T12:22:10;4.57;;;2.20;;
59960;SDS011;55902;-37.980;-63.602;2023-07-31T12:24:39;2.08;;;1.80;;
59960;SDS011;55902;-37.980;-63.602;2023-07-31T12:27:13;2.70;;;1.80;;
59960;SDS011;55902;-37.980;-63.602;2023-07-31T12:29:42;1.90;;;1.80;;
59960;SDS011;55902;-37.980;-63.602;2023-07-31T12:32:22;2.95;;;2.00;;
59960;SDS011;55902;-37.980;-63.602;2023-07-31T12:34:58;2.03;;;1.80;;
59960;SDS011;55902;-37.980;-63.602;2023-07-31T12:37:27;3.47;;;1.70;;
59960;SDS011;55902;-37.980;-63.602;2023-07-31T12:39:55;3.50;;;2.08;;
59960;SDS011;55902;-37.980;-63.602;2023-07-31T12:42:26;2.40;;;1.70;;
59960;SDS011;55902;-37.980;-63.602;2023-07-31T12:44:53;1.88;;;1.65;;
59960;SDS011;55902;-37.980;-63.602;2023-07-31T12:47:20;2.75;;;1.67;;
59960;SDS011;55902;-37.980;-63.602;2023-07-31T12:49:47;1.98;;;1.60;;
59960;SDS011;55902;-37.980;-63.602;2023-07-31T12:52:14;2.45;;;1.50;;
59960;SDS011;55902;-37.980;-63.602;2023-07-31T12:54:41;2.40;;;1.80;;
59960;SDS011;55902;-37.980;-63.602;2023-07-31T12:57:11;2.60;;;1.60;;
59960;SDS011;55902;-37.980;-63.602;2023-07-31T12:59:38;1.90;;;1.70;;
59960;SDS011;55902;-37.980;-63.602;2023-07-31T13:02:06;2.30;;;1.60;;
59960;SDS011;55902;-37.980;-63.602;2023-07-31T13:04:33;3.42;;;1.60;;
59960;SDS011;55902;-37.980;-63.602;2023-07-31T13:07:00;2.83;;;1.63;;
59960;SDS011;55902;-37.980;-63.602;2023-07-31T13:09:29;6.95;;;1.80;;
59960;SDS011;55902;-37.980;-63.602;2023-07-31T13:11:56;2.67;;;1.50;;
59960;SDS011;55902;-37.980;-63.602;2023-07-31T13:14:23;1.63;;;1.50;;
59960;SDS011;55902;-37.980;-63.602;2023-07-31T13:16:50;4.13;;;1.60;;
59960;SDS011;55902;-37.980;-63.602;2023-07-31T13:19:17;2.45;;;1.58;;
59960;SDS011;55902;-37.980;-63.602;2023-07-31T13:21:44;1.73;;;1.50;;
59960;SDS011;55902;-37.980;-63.602;2023-07-31T13:24:11;8.43;;;1.70;;
59960;SDS011;55902;-37.980;-63.602;2023-07-31T13:26:38;2.38;;;1.50;;
59960;SDS011;55902;-37.980;-63.602;2023-07-31T13:29:05;2.30;;;1.70;;
59960;SDS011;55902;-37.980;-63.602;2023-07-31T13:31:32;2.38;;;1.38;;
59960;SDS011;55902;-37.980;-63.602;2023-07-31T13:33:59;2.55;;;1.30;;
59960;SDS011;55902;-37.980;-63.602;2023-07-31T13:36:26;2.58;;;1.25;;
59960;SDS011;55902;-37.980;-63.602;2023-07-31T13:39:00;1.30;;;1.20;;
59960;SDS011;55902;-37.980;-63.602;2023-07-31T13:41:30;2.00;;;1.20;;
59960;SDS011;55902;-37.980;-63.602;2023-07-31T13:43:57;2.50;;;1.40;;
59960;SDS011;55902;-37.980;-63.602;2023-07-31T13:46:24;2.30;;;1.20;;
59960;SDS011;55902;-37.980;-63.602;2023-07-31T13:48:52;3.20;;;1.17;;
59960;SDS011;55902;-37.980;-63.602;2023-07-31T13:51:23;1.95;;;1.30;;
59960;SDS011;55902;-37.980;-63.602;2023-07-31T13:53:51;2.80;;;1.20;;
59960;SDS011;55902;-37.980;-63.602;2023-07-31T13:56:18;1.73;;;1.20;;
59960;SDS011;55902;-37.980;-63.602;2023-07-31T13:58:45;2.40;;;1.30;;
59960;SDS011;55902;-37.980;-63.602;2023-07-31T14:01:13;2.33;;;1.10;;
59960;SDS011;55902;-37.980;-63.602;2023-07-31T14:03:40;2.58;;;1.17;;
59960;SDS011;55902;-37.980;-63.602;2023-07-31T14:06:10;1.25;;;1.10;;
59960;SDS011;55902;-37.980;-63.602;2023-07-31T14:08:37;3.08;;;1.15;;
59960;SDS011;55902;-37.980;-63.602;2023-07-31T14:11:04;2.00;;;1.23;;
59960;SDS011;55902;-37.980;-63.602;2023-07-31T14:13:32;4.50;;;1.10;;
59960;SDS011;55902;-37.980;-63.602;2023-07-31T14:16:19;2.33;;;1.20;;
59960;SDS011;55902;-37.980;-63.602;2023-07-31T14:18:49;3.25;;;1.20;;
59960;SDS011;55902;-37.980;-63.602;2023-07-31T14:21:19;2.85;;;2.40;;
59960;SDS011;55902;-37.980;-63.602;2023-07-31T14:23:46;2.75;;;1.20;;
59960;SDS011;55902;-37.980;-63.602;2023-07-31T14:26:15;2.65;;;1.20;;
59960;SDS011;55902;-37.980;-63.602;2023-07-31T14:28:42;1.52;;;1.10;;
59960;SDS011;55902;-37.980;-63.602;2023-07-31T14:31:09;7.10;;;1.48;;
59960;SDS011;55902;-37.980;-63.602;2023-07-31T14:33:36;2.28;;;1.20;;
59960;SDS011;55902;-37.980;-63.602;2023-07-31T14:36:04;3.28;;;1.30;;
59960;SDS011;55902;-37.980;-63.602;2023-07-31T14:38:34;1.67;;;1.20;;
59960;SDS011;55902;-37.980;-63.602;2023-07-31T14:41:01;2.50;;;1.17;;
59960;SDS011;55902;-37.980;-63.602;2023-07-31T14:43:32;4.35;;;1.15;;
59960;SDS011;55902;-37.980;-63.602;2023-07-31T14:45:59;3.15;;;1.08;;
59960;SDS011;55902;-37.980;-63.602;2023-07-31T14:48:26;3.50;;;1.15;;
59960;SDS011;55902;-37.980;-63.602;2023-07-31T14:50:54;2.65;;;1.13;;
59960;SDS011;55902;-37.980;-63.602;2023-07-31T14:53:21;1.88;;;1.08;;
59960;SDS011;55902;-37.980;-63.602;2023-07-31T14:55:48;4.70;;;1.55;;
59960;SDS011;55902;-37.980;-63.602;2023-07-31T14:58:15;5.15;;;2.40;;
59960;SDS011;55902;-37.980;-63.602;2023-07-31T15:00:43;4.50;;;2.20;;
59960;SDS011;55902;-37.980;-63.602;2023-07-31T15:03:12;3.22;;;2.00;;
59960;SDS011;55902;-37.980;-63.602;2023-07-31T15:05:39;4.05;;;1.55;;
59960;SDS011;55902;-37.980;-63.602;2023-07-31T15:08:06;3.25;;;1.30;;
59960;SDS011;55902;-37.980;-63.602;2023-07-31T15:10:33;3.97;;;1.25;;
59960;SDS011;55902;-37.980;-63.602;2023-07-31T15:13:04;2.70;;;1.90;;